sensor_id;sensor_type;location;lat;lon;timestamp;P1;durP1;ratioP1;P2;durP2;ratioP2
8397;SDS011;4236;54.504;9.588;2022-09-01T00:01:26;2.90;;;2.80;;
8397;SDS011;4236;54.504;9.588;2022-09-01T00:03:56;3.20;;;3.00;;
8397;SDS011;4236;54.504;9.588;2022-09-01T00:06:30;2.93;;;2.83;;
8397;SDS011;4236;54.504;9.588;2022-09-01T00:09:00;2.87;;;2.77;;
8397;SDS011;4236;54.504;9.588;2022-09-01T00:11:32;2.97;;;2.87;;
8397;SDS011;4236;54.504;9.588;2022-09-01T00:14:00;3.43;;;3.13;;
8397;SDS011;4236;54.504;9.588;2022-09-01T00:16:30;3.20;;;3.00;;
8397;SDS011;4236;54.504;9.588;2022-09-01T00:18:58;3.43;;;3.23;;
8397;SDS011;4236;54.504;9.588;2022-09-01T00:21:27;3.73;;;3.13;;
8397;SDS011;4236;54.504;9.588;2022-09-01T00:23:56;2.87;;;2.77;;
8397;SDS011;4236;54.504;9.588;2022-09-01T00:26:25;2.83;;;2.73;;
8397;SDS011;4236;54.504;9.588;2022-09-01T00:28:54;3.60;;;3.40;;
8397;SDS011;4236;54.504;9.588;2022-09-01T00:31:22;3.27;;;3.17;;
8397;SDS011;4236;54.504;9.588;2022-09-01T00:33:50;3.73;;;3.43;;
8397;SDS011;4236;54.504;9.588;2022-09-01T00:36:18;3.43;;;3.33;;
8397;SDS011;4236;54.504;9.588;2022-09-01T00:38:47;4.10;;;3.80;;
8397;SDS011;4236;54.504;9.588;2022-09-01T00:41:16;3.67;;;3.53;;
8397;SDS011;4236;54.504;9.588;2022-09-01T00:43:47;4.03;;;3.73;;
8397;SDS011;4236;54.504;9.588;2022-09-01T00:46:17;4.07;;;3.87;;
8397;SDS011;4236;54.504;9.588;2022-09-01T00:48:50;3.80;;;3.70;;
8397;SDS011;4236;54.504;9.588;2022-09-01T00:51:22;3.33;;;3.13;;
8397;SDS011;4236;54.504;9.588;2022-09-01T00:53:50;3.73;;;3.53;;
8397;SDS011;4236;54.504;9.588;2022-09-01T00:56:21;4.23;;;3.80;;
8397;SDS011;4236;54.504;9.588;2022-09-01T00:58:49;4.03;;;3.93;;
8397;SDS011;4236;54.504;9.588;2022-09-01T01:01:18;4.60;;;4.30;;
8397;SDS011;4236;54.504;9.588;2022-09-01T01:03:46;5.07;;;4.87;;
8397;SDS011;4236;54.504;9.588;2022-09-01T01:06:14;4.40;;;4.13;;
8397;SDS011;4236;54.504;9.588;2022-09-01T01:08:45;4.10;;;4.00;;
8397;SDS011;4236;54.504;9.588;2022-09-01T01:11:24;4.80;;;3.80;;
8397;SDS011;4236;54.504;9.588;2022-09-01T01:13:54;4.40;;;3.40;;
8397;SDS011;4236;54.504;9.588;2022-09-01T01:16:27;3.57;;;3.27;;
8397;SDS011;4236;54.504;9.588;2022-09-01T01:18:55;3.77;;;3.67;;
8397;SDS011;4236;54.504;9.588;2022-09-01T01:21:25;3.60;;;3.40;;
8397;SDS011;4236;54.504;9.588;2022-09-01T01:24:21;3.90;;;3.60;;
8397;SDS011;4236;54.504;9.588;2022-09-01T01:26:50;3.87;;;3.67;;
8397;SDS011;4236;54.504;9.588;2022-09-01T01:29:19;4.07;;;3.77;;
8397;SDS011;4236;54.504;9.588;2022-09-01T01:31:47;4.87;;;4.07;;
8397;SDS011;4236;54.504;9.588;2022-09-01T01:34:17;4.67;;;4.27;;
8397;SDS011;4236;54.504;9.588;2022-09-01T01:36:45;4.70;;;4.50;;
8397;SDS011;4236;54.504;9.588;2022-09-01T01:39:15;4.83;;;4.53;;
8397;SDS011;4236;54.504;9.588;2022-09-01T01:41:46;4.07;;;3.97;;
8397;SDS011;4236;54.504;9.588;2022-09-01T01:44:17;4.60;;;4.30;;
8397;SDS011;4236;54.504;9.588;2022-09-01T01:46:48;4.37;;;4.17;;
8397;SDS011;4236;54.504;9.588;2022-09-01T01:49:18;4.30;;;4.20;;
8397;SDS011;4236;54.504;9.588;2022-09-01T01:51:48;3.97;;;3.87;;
8397;SDS011;4236;54.504;9.588;2022-09-01T01:54:23;5.00;;;4.57;;
8397;SDS011;4236;54.504;9.588;2022-09-01T01:56:58;4.53;;;4.33;;
8397;SDS011;4236;54.504;9.588;2022-09-01T01:59:29;5.00;;;4.70;;
8397;SDS011;4236;54.504;9.588;2022-09-01T02:01:58;4.60;;;4.40;;
8397;SDS011;4236;54.504;9.588;2022-09-01T02:04:29;4.77;;;4.33;;
8397;SDS011;4236;54.504;9.588;2022-09-01T02:06:59;4.67;;;4.10;;
8397;SDS011;4236;54.504;9.588;2022-09-01T02:09:26;4.53;;;4.33;;
8397;SDS011;4236;54.504;9.588;2022-09-01T02:11:54;5.37;;;5.00;;
8397;SDS011;4236;54.504;9.588;2022-09-01T02:14:23;4.77;;;4.57;;
8397;SDS011;4236;54.504;9.588;2022-09-01T02:16:51;4.80;;;4.50;;
8397;SDS011;4236;54.504;9.588;2022-09-01T02:19:21;4.20;;;4.10;;
8397;SDS011;4236;54.504;9.588;2022-09-01T02:21:48;5.13;;;4.83;;
8397;SDS011;4236;54.504;9.588;2022-09-01T02:24:19;4.40;;;4.20;;
8397;SDS011;4236;54.504;9.588;2022-09-01T02:26:47;4.20;;;4.10;;
8397;SDS011;4236;54.504;9.588;2022-09-01T02:29:16;4.67;;;4.37;;
8397;SDS011;4236;54.504;9.588;2022-09-01T02:31:49;4.63;;;4.43;;
8397;SDS011;4236;54.504;9.588;2022-09-01T02:34:18;4.30;;;4.10;;
8397;SDS011;4236;54.504;9.588;2022-09-01T02:36:49;4.20;;;4.10;;
8397;SDS011;4236;54.504;9.588;2022-09-01T02:39:19;4.50;;;4.20;;
8397;SDS011;4236;54.504;9.588;2022-09-01T02:41:49;4.37;;;4.10;;
8397;SDS011;4236;54.504;9.588;2022-09-01T02:44:18;4.33;;;4.13;;
8397;SDS011;4236;54.504;9.588;2022-09-01T02:46:49;3.20;;;3.10;;
8397;SDS011;4236;54.504;9.588;2022-09-01T02:49:17;3.00;;;2.90;;
8397;SDS011;4236;54.504;9.588;2022-09-01T02:51:54;3.27;;;3.13;;
8397;SDS011;4236;54.504;9.588;2022-09-01T02:54:27;3.97;;;3.77;;
8397;SDS011;4236;54.504;9.588;2022-09-01T02:56:56;3.67;;;3.47;;
8397;SDS011;4236;54.504;9.588;2022-09-01T02:59:24;4.33;;;3.77;;
8397;SDS011;4236;54.504;9.588;2022-09-01T03:01:56;3.87;;;3.70;;
8397;SDS011;4236;54.504;9.588;2022-09-01T03:04:24;4.53;;;3.50;;
8397;SDS011;4236;54.504;9.588;2022-09-01T03:06:53;3.43;;;3.30;;
8397;SDS011;4236;54.504;9.588;2022-09-01T03:09:23;4.00;;;3.70;;
8397;SDS011;4236;54.504;9.588;2022-09-01T03:11:52;3.60;;;3.30;;
8397;SDS011;4236;54.504;9.588;2022-09-01T03:14:21;3.30;;;3.10;;
8397;SDS011;4236;54.504;9.588;2022-09-01T03:16:49;3.47;;;3.37;;
8397;SDS011;4236;54.504;9.588;2022-09-01T03:19:18;3.23;;;3.03;;
8397;SDS011;4236;54.504;9.588;2022-09-01T03:21:46;3.60;;;3.40;;
8397;SDS011;4236;54.504;9.588;2022-09-01T03:24:15;3.73;;;3.53;;
8397;SDS011;4236;54.504;9.588;2022-09-01T03:26:44;4.00;;;3.80;;
8397;SDS011;4236;54.504;9.588;2022-09-01T03:29:15;4.90;;;4.60;;
8397;SDS011;4236;54.504;9.588;2022-09-01T03:31:43;4.83;;;4.43;;
8397;SDS011;4236;54.504;9.588;2022-09-01T03:34:11;5.33;;;4.10;;
8397;SDS011;4236;54.504;9.588;2022-09-01T03:36:40;3.93;;;3.83;;
8397;SDS011;4236;54.504;9.588;2022-09-01T03:39:15;3.60;;;3.40;;
8397;SDS011;4236;54.504;9.588;2022-09-01T03:41:43;3.40;;;3.20;;
8397;SDS011;4236;54.504;9.588;2022-09-01T03:44:11;4.13;;;3.93;;
8397;SDS011;4236;54.504;9.588;2022-09-01T03:46:41;3.80;;;3.70;;
8397;SDS011;4236;54.504;9.588;2022-09-01T03:49:10;4.30;;;4.00;;
8397;SDS011;4236;54.504;9.588;2022-09-01T03:51:42;4.07;;;3.80;;
8397;SDS011;4236;54.504;9.588;2022-09-01T03:54:11;3.57;;;3.40;;
8397;SDS011;4236;54.504;9.588;2022-09-01T03:56:39;4.03;;;3.83;;
8397;SDS011;4236;54.504;9.588;2022-09-01T03:59:08;4.20;;;3.97;;
8397;SDS011;4236;54.504;9.588;2022-09-01T04:01:42;3.73;;;3.53;;
8397;SDS011;4236;54.504;9.588;2022-09-01T04:04:10;4.17;;;3.87;;
8397;SDS011;4236;54.504;9.588;2022-09-01T04:06:41;3.70;;;3.60;;
8397;SDS011;4236;54.504;9.588;2022-09-01T04:09:11;3.87;;;3.67;;
8397;SDS011;4236;54.504;9.588;2022-09-01T04:11:39;3.27;;;3.07;;
8397;SDS011;4236;54.504;9.588;2022-09-01T04:14:11;3.40;;;3.30;;
8397;SDS011;4236;54.504;9.588;2022-09-01T04:16:39;3.43;;;3.23;;
8397;SDS011;4236;54.504;9.588;2022-09-01T04:19:25;5.57;;;5.20;;
8397;SDS011;4236;54.504;9.588;2022-09-01T04:21:54;3.70;;;3.60;;
8397;SDS011;4236;54.504;9.588;2022-09-01T04:24:25;3.97;;;3.77;;
8397;SDS011;4236;54.504;9.588;2022-09-01T04:26:55;3.67;;;3.47;;
8397;SDS011;4236;54.504;9.588;2022-09-01T04:29:27;3.80;;;3.53;;
8397;SDS011;4236;54.504;9.588;2022-09-01T04:31:58;3.50;;;3.40;;
8397;SDS011;4236;54.504;9.588;2022-09-01T04:34:29;3.07;;;2.97;;
8397;SDS011;4236;54.504;9.588;2022-09-01T04:37:05;3.23;;;3.13;;
8397;SDS011;4236;54.504;9.588;2022-09-01T04:39:34;3.23;;;3.13;;
8397;SDS011;4236;54.504;9.588;2022-09-01T04:42:04;4.27;;;4.00;;
8397;SDS011;4236;54.504;9.588;2022-09-01T04:44:34;3.93;;;3.73;;
8397;SDS011;4236;54.504;9.588;2022-09-01T04:47:02;3.77;;;3.47;;
8397;SDS011;4236;54.504;9.588;2022-09-01T04:49:36;3.83;;;3.40;;
8397;SDS011;4236;54.504;9.588;2022-09-01T04:52:05;3.67;;;3.57;;
8397;SDS011;4236;54.504;9.588;2022-09-01T04:54:33;4.20;;;4.00;;
8397;SDS011;4236;54.504;9.588;2022-09-01T04:57:02;3.47;;;3.37;;
8397;SDS011;4236;54.504;9.588;2022-09-01T04:59:30;4.30;;;4.00;;
8397;SDS011;4236;54.504;9.588;2022-09-01T05:01:59;3.70;;;3.53;;
8397;SDS011;4236;54.504;9.588;2022-09-01T05:04:27;3.30;;;3.10;;
8397;SDS011;4236;54.504;9.588;2022-09-01T05:06:59;3.30;;;3.10;;
8397;SDS011;4236;54.504;9.588;2022-09-01T05:09:30;3.60;;;3.37;;
8397;SDS011;4236;54.504;9.588;2022-09-01T05:12:00;3.20;;;3.00;;
8397;SDS011;4236;54.504;9.588;2022-09-01T05:14:41;3.40;;;3.20;;
8397;SDS011;4236;54.504;9.588;2022-09-01T05:17:12;3.30;;;3.20;;
8397;SDS011;4236;54.504;9.588;2022-09-01T05:19:43;3.33;;;3.23;;
8397;SDS011;4236;54.504;9.588;2022-09-01T05:22:12;3.20;;;3.00;;
8397;SDS011;4236;54.504;9.588;2022-09-01T05:24:42;4.10;;;3.90;;
8397;SDS011;4236;54.504;9.588;2022-09-01T05:27:10;3.73;;;3.53;;
8397;SDS011;4236;54.504;9.588;2022-09-01T05:29:39;3.90;;;3.80;;
8397;SDS011;4236;54.504;9.588;2022-09-01T05:32:07;4.17;;;3.97;;
8397;SDS011;4236;54.504;9.588;2022-09-01T05:34:35;3.70;;;3.50;;
8397;SDS011;4236;54.504;9.588;2022-09-01T05:37:05;4.13;;;3.87;;
8397;SDS011;4236;54.504;9.588;2022-09-01T05:39:34;6.20;;;3.77;;
8397;SDS011;4236;54.504;9.588;2022-09-01T05:42:04;4.00;;;3.80;;
8397;SDS011;4236;54.504;9.588;2022-09-01T05:44:33;4.47;;;4.03;;
8397;SDS011;4236;54.504;9.588;2022-09-01T05:47:01;3.93;;;3.67;;
8397;SDS011;4236;54.504;9.588;2022-09-01T05:49:30;3.70;;;3.50;;
8397;SDS011;4236;54.504;9.588;2022-09-01T05:51:58;4.20;;;3.90;;
8397;SDS011;4236;54.504;9.588;2022-09-01T05:54:26;3.50;;;3.30;;
8397;SDS011;4236;54.504;9.588;2022-09-01T05:56:54;3.50;;;3.27;;
8397;SDS011;4236;54.504;9.588;2022-09-01T05:59:44;4.07;;;3.43;;
8397;SDS011;4236;54.504;9.588;2022-09-01T06:02:19;3.60;;;3.30;;
8397;SDS011;4236;54.504;9.588;2022-09-01T06:04:47;3.30;;;3.10;;
8397;SDS011;4236;54.504;9.588;2022-09-01T06:07:15;4.00;;;3.70;;
8397;SDS011;4236;54.504;9.588;2022-09-01T06:09:50;3.30;;;3.10;;
8397;SDS011;4236;54.504;9.588;2022-09-01T06:12:18;3.40;;;3.30;;
8397;SDS011;4236;54.504;9.588;2022-09-01T06:14:50;3.63;;;3.37;;
8397;SDS011;4236;54.504;9.588;2022-09-01T06:17:20;3.53;;;3.33;;
8397;SDS011;4236;54.504;9.588;2022-09-01T06:19:51;3.20;;;3.00;;
8397;SDS011;4236;54.504;9.588;2022-09-01T06:22:20;3.20;;;3.10;;
8397;SDS011;4236;54.504;9.588;2022-09-01T06:24:49;3.63;;;3.50;;
8397;SDS011;4236;54.504;9.588;2022-09-01T06:27:26;3.67;;;3.47;;
8397;SDS011;4236;54.504;9.588;2022-09-01T06:29:55;5.00;;;2.93;;
8397;SDS011;4236;54.504;9.588;2022-09-01T06:32:23;3.80;;;3.60;;
8397;SDS011;4236;54.504;9.588;2022-09-01T06:34:52;3.90;;;3.57;;
8397;SDS011;4236;54.504;9.588;2022-09-01T06:37:23;3.70;;;3.50;;
8397;SDS011;4236;54.504;9.588;2022-09-01T06:39:50;3.30;;;3.20;;
8397;SDS011;4236;54.504;9.588;2022-09-01T06:42:18;4.80;;;3.50;;
8397;SDS011;4236;54.504;9.588;2022-09-01T06:44:48;3.67;;;3.47;;
8397;SDS011;4236;54.504;9.588;2022-09-01T06:47:17;3.60;;;3.40;;
8397;SDS011;4236;54.504;9.588;2022-09-01T06:49:44;3.67;;;3.40;;
8397;SDS011;4236;54.504;9.588;2022-09-01T06:52:13;3.70;;;3.10;;
8397;SDS011;4236;54.504;9.588;2022-09-01T06:54:41;3.93;;;3.30;;
8397;SDS011;4236;54.504;9.588;2022-09-01T06:57:09;4.40;;;3.00;;
8397;SDS011;4236;54.504;9.588;2022-09-01T06:59:57;3.00;;;2.80;;
8397;SDS011;4236;54.504;9.588;2022-09-01T07:02:27;3.30;;;3.20;;
8397;SDS011;4236;54.504;9.588;2022-09-01T07:04:59;3.37;;;2.93;;
8397;SDS011;4236;54.504;9.588;2022-09-01T07:07:27;3.27;;;3.07;;
8397;SDS011;4236;54.504;9.588;2022-09-01T07:10:19;2.80;;;2.70;;
8397;SDS011;4236;54.504;9.588;2022-09-01T07:12:48;2.70;;;2.60;;
8397;SDS011;4236;54.504;9.588;2022-09-01T07:15:31;3.13;;;2.93;;
8397;SDS011;4236;54.504;9.588;2022-09-01T07:18:22;3.07;;;2.97;;
8397;SDS011;4236;54.504;9.588;2022-09-01T07:20:52;3.00;;;2.70;;
8397;SDS011;4236;54.504;9.588;2022-09-01T07:23:41;2.90;;;2.70;;
8397;SDS011;4236;54.504;9.588;2022-09-01T07:26:29;3.37;;;3.27;;
8397;SDS011;4236;54.504;9.588;2022-09-01T07:28:59;2.87;;;2.60;;
8397;SDS011;4236;54.504;9.588;2022-09-01T07:31:31;2.93;;;2.73;;
8397;SDS011;4236;54.504;9.588;2022-09-01T07:34:25;3.00;;;2.90;;
8397;SDS011;4236;54.504;9.588;2022-09-01T07:37:12;3.00;;;2.90;;
8397;SDS011;4236;54.504;9.588;2022-09-01T07:40:00;3.53;;;3.33;;
8397;SDS011;4236;54.504;9.588;2022-09-01T07:42:52;3.73;;;3.10;;
8397;SDS011;4236;54.504;9.588;2022-09-01T07:45:40;3.20;;;3.10;;
8397;SDS011;4236;54.504;9.588;2022-09-01T07:48:14;3.40;;;3.20;;
8397;SDS011;4236;54.504;9.588;2022-09-01T07:51:06;2.90;;;2.80;;
8397;SDS011;4236;54.504;9.588;2022-09-01T07:53:54;3.20;;;3.00;;
8397;SDS011;4236;54.504;9.588;2022-09-01T07:56:23;3.20;;;2.80;;
8397;SDS011;4236;54.504;9.588;2022-09-01T07:58:51;3.77;;;3.67;;
8397;SDS011;4236;54.504;9.588;2022-09-01T08:01:20;3.50;;;3.30;;
8397;SDS011;4236;54.504;9.588;2022-09-01T08:03:50;3.47;;;3.37;;
8397;SDS011;4236;54.504;9.588;2022-09-01T08:06:21;3.70;;;3.60;;
8397;SDS011;4236;54.504;9.588;2022-09-01T08:08:53;3.20;;;3.10;;
8397;SDS011;4236;54.504;9.588;2022-09-01T08:11:23;4.70;;;3.70;;
8397;SDS011;4236;54.504;9.588;2022-09-01T08:14:13;4.17;;;3.97;;
8397;SDS011;4236;54.504;9.588;2022-09-01T08:16:43;3.40;;;3.20;;
8397;SDS011;4236;54.504;9.588;2022-09-01T08:19:18;4.27;;;4.07;;
8397;SDS011;4236;54.504;9.588;2022-09-01T08:21:48;4.63;;;4.50;;
8397;SDS011;4236;54.504;9.588;2022-09-01T08:24:15;5.43;;;5.23;;
8397;SDS011;4236;54.504;9.588;2022-09-01T08:26:44;5.60;;;5.37;;
8397;SDS011;4236;54.504;9.588;2022-09-01T08:29:11;6.47;;;6.27;;
8397;SDS011;4236;54.504;9.588;2022-09-01T08:31:39;5.30;;;5.20;;
8397;SDS011;4236;54.504;9.588;2022-09-01T08:34:07;4.80;;;4.60;;
8397;SDS011;4236;54.504;9.588;2022-09-01T08:36:37;5.13;;;4.83;;
8397;SDS011;4236;54.504;9.588;2022-09-01T08:39:06;4.33;;;4.23;;
8397;SDS011;4236;54.504;9.588;2022-09-01T08:41:50;3.70;;;3.60;;
8397;SDS011;4236;54.504;9.588;2022-09-01T08:44:28;3.40;;;3.27;;
8397;SDS011;4236;54.504;9.588;2022-09-01T08:47:06;3.73;;;3.50;;
8397;SDS011;4236;54.504;9.588;2022-09-01T08:49:40;3.80;;;3.50;;
8397;SDS011;4236;54.504;9.588;2022-09-01T08:52:14;3.30;;;3.10;;
8397;SDS011;4236;54.504;9.588;2022-09-01T08:54:53;3.70;;;3.50;;
8397;SDS011;4236;54.504;9.588;2022-09-01T08:57:28;3.30;;;3.20;;
8397;SDS011;4236;54.504;9.588;2022-09-01T08:59:59;5.00;;;4.80;;
8397;SDS011;4236;54.504;9.588;2022-09-01T09:02:32;3.80;;;3.70;;
8397;SDS011;4236;54.504;9.588;2022-09-01T09:05:16;3.97;;;3.77;;
8397;SDS011;4236;54.504;9.588;2022-09-01T09:08:01;3.37;;;3.27;;
8397;SDS011;4236;54.504;9.588;2022-09-01T09:10:42;3.10;;;3.00;;
8397;SDS011;4236;54.504;9.588;2022-09-01T09:13:22;3.60;;;3.40;;
8397;SDS011;4236;54.504;9.588;2022-09-01T09:15:57;3.73;;;3.40;;
8397;SDS011;4236;54.504;9.588;2022-09-01T09:18:37;3.80;;;3.60;;
8397;SDS011;4236;54.504;9.588;2022-09-01T09:21:26;3.97;;;3.60;;
8397;SDS011;4236;54.504;9.588;2022-09-01T09:23:57;3.33;;;3.23;;
8397;SDS011;4236;54.504;9.588;2022-09-01T09:26:31;3.93;;;3.83;;
8397;SDS011;4236;54.504;9.588;2022-09-01T09:29:14;4.10;;;3.83;;
8397;SDS011;4236;54.504;9.588;2022-09-01T09:31:43;3.33;;;3.23;;
8397;SDS011;4236;54.504;9.588;2022-09-01T09:34:30;3.70;;;3.50;;
8397;SDS011;4236;54.504;9.588;2022-09-01T09:37:01;3.40;;;3.30;;
8397;SDS011;4236;54.504;9.588;2022-09-01T09:39:43;3.60;;;3.40;;
8397;SDS011;4236;54.504;9.588;2022-09-01T09:42:13;3.20;;;3.00;;
8397;SDS011;4236;54.504;9.588;2022-09-01T09:44:41;3.00;;;2.90;;
8397;SDS011;4236;54.504;9.588;2022-09-01T09:50:11;2.80;;;2.70;;
8397;SDS011;4236;54.504;9.588;2022-09-01T09:52:42;3.10;;;2.90;;
8397;SDS011;4236;54.504;9.588;2022-09-01T09:55:25;2.97;;;2.87;;
8397;SDS011;4236;54.504;9.588;2022-09-01T09:57:57;2.70;;;2.60;;
8397;SDS011;4236;54.504;9.588;2022-09-01T10:00:26;3.37;;;3.27;;
8397;SDS011;4236;54.504;9.588;2022-09-01T10:02:57;3.20;;;3.10;;
8397;SDS011;4236;54.504;9.588;2022-09-01T10:05:35;3.10;;;3.00;;
8397;SDS011;4236;54.504;9.588;2022-09-01T10:08:07;2.97;;;2.77;;
8397;SDS011;4236;54.504;9.588;2022-09-01T10:10:38;3.27;;;3.07;;
8397;SDS011;4236;54.504;9.588;2022-09-01T10:13:09;2.90;;;2.80;;
8397;SDS011;4236;54.504;9.588;2022-09-01T10:15:40;3.10;;;2.80;;
8397;SDS011;4236;54.504;9.588;2022-09-01T10:18:11;3.43;;;3.23;;
8397;SDS011;4236;54.504;9.588;2022-09-01T10:20:48;3.07;;;2.97;;
8397;SDS011;4236;54.504;9.588;2022-09-01T10:23:20;3.10;;;2.90;;
8397;SDS011;4236;54.504;9.588;2022-09-01T10:25:52;3.93;;;3.60;;
8397;SDS011;4236;54.504;9.588;2022-09-01T10:28:23;3.30;;;3.20;;
8397;SDS011;4236;54.504;9.588;2022-09-01T10:30:53;3.80;;;3.60;;
8397;SDS011;4236;54.504;9.588;2022-09-01T10:33:22;3.80;;;3.70;;
8397;SDS011;4236;54.504;9.588;2022-09-01T10:35:50;3.80;;;3.60;;
8397;SDS011;4236;54.504;9.588;2022-09-01T10:38:19;3.00;;;2.90;;
8397;SDS011;4236;54.504;9.588;2022-09-01T10:40:50;3.40;;;3.30;;
8397;SDS011;4236;54.504;9.588;2022-09-01T10:43:36;3.60;;;3.50;;
8397;SDS011;4236;54.504;9.588;2022-09-01T10:55:40;2.83;;;2.73;;
8397;SDS011;4236;54.504;9.588;2022-09-01T10:58:18;3.10;;;2.90;;
8397;SDS011;4236;54.504;9.588;2022-09-01T11:01:17;3.50;;;3.30;;
8397;SDS011;4236;54.504;9.588;2022-09-01T11:07:37;2.80;;;2.70;;
8397;SDS011;4236;54.504;9.588;2022-09-01T11:10:28;2.97;;;2.77;;
8397;SDS011;4236;54.504;9.588;2022-09-01T11:19:22;3.40;;;3.30;;
8397;SDS011;4236;54.504;9.588;2022-09-01T11:22:08;3.13;;;3.03;;
8397;SDS011;4236;54.504;9.588;2022-09-01T11:24:44;3.00;;;2.90;;
8397;SDS011;4236;54.504;9.588;2022-09-01T11:30:44;2.90;;;2.80;;
8397;SDS011;4236;54.504;9.588;2022-09-01T11:33:26;2.73;;;2.63;;
8397;SDS011;4236;54.504;9.588;2022-09-01T11:36:01;2.57;;;2.47;;
8397;SDS011;4236;54.504;9.588;2022-09-01T11:38:31;3.00;;;2.90;;
8397;SDS011;4236;54.504;9.588;2022-09-01T11:41:19;2.97;;;2.60;;
8397;SDS011;4236;54.504;9.588;2022-09-01T11:43:50;3.47;;;3.20;;
8397;SDS011;4236;54.504;9.588;2022-09-01T11:46:21;2.63;;;2.53;;
8397;SDS011;4236;54.504;9.588;2022-09-01T11:48:54;3.20;;;3.00;;
8397;SDS011;4236;54.504;9.588;2022-09-01T11:51:23;3.00;;;2.80;;
8397;SDS011;4236;54.504;9.588;2022-09-01T11:53:51;2.70;;;2.60;;
8397;SDS011;4236;54.504;9.588;2022-09-01T11:56:26;3.07;;;2.97;;
8397;SDS011;4236;54.504;9.588;2022-09-01T11:58:55;2.87;;;2.77;;
8397;SDS011;4236;54.504;9.588;2022-09-01T12:01:30;5.10;;;2.70;;
8397;SDS011;4236;54.504;9.588;2022-09-01T12:06:52;2.47;;;2.37;;
8397;SDS011;4236;54.504;9.588;2022-09-01T12:09:30;2.70;;;2.50;;
8397;SDS011;4236;54.504;9.588;2022-09-01T12:12:02;3.43;;;3.23;;
8397;SDS011;4236;54.504;9.588;2022-09-01T12:14:31;3.57;;;3.20;;
8397;SDS011;4236;54.504;9.588;2022-09-01T12:17:19;3.60;;;3.40;;
8397;SDS011;4236;54.504;9.588;2022-09-01T12:19:48;2.70;;;2.60;;
8397;SDS011;4236;54.504;9.588;2022-09-01T12:22:16;3.10;;;3.00;;
8397;SDS011;4236;54.504;9.588;2022-09-01T12:24:47;3.10;;;2.90;;
8397;SDS011;4236;54.504;9.588;2022-09-01T12:27:16;3.13;;;2.93;;
8397;SDS011;4236;54.504;9.588;2022-09-01T12:29:43;3.20;;;2.90;;
8397;SDS011;4236;54.504;9.588;2022-09-01T12:32:12;2.80;;;2.70;;
8397;SDS011;4236;54.504;9.588;2022-09-01T12:34:42;2.97;;;2.87;;
8397;SDS011;4236;54.504;9.588;2022-09-01T12:37:19;2.90;;;2.80;;
8397;SDS011;4236;54.504;9.588;2022-09-01T12:39:49;2.77;;;2.67;;
8397;SDS011;4236;54.504;9.588;2022-09-01T12:42:22;2.90;;;2.80;;
8397;SDS011;4236;54.504;9.588;2022-09-01T12:44:52;3.23;;;3.03;;
8397;SDS011;4236;54.504;9.588;2022-09-01T12:50:32;3.20;;;3.10;;
8397;SDS011;4236;54.504;9.588;2022-09-01T12:56:03;2.80;;;2.70;;
8397;SDS011;4236;54.504;9.588;2022-09-01T12:58:43;3.10;;;2.90;;
8397;SDS011;4236;54.504;9.588;2022-09-01T13:01:23;2.83;;;2.73;;
8397;SDS011;4236;54.504;9.588;2022-09-01T13:04:13;3.10;;;2.80;;
8397;SDS011;4236;54.504;9.588;2022-09-01T13:06:50;2.87;;;2.77;;
8397;SDS011;4236;54.504;9.588;2022-09-01T13:09:20;2.63;;;2.53;;
8397;SDS011;4236;54.504;9.588;2022-09-01T13:11:47;3.20;;;3.00;;
8397;SDS011;4236;54.504;9.588;2022-09-01T13:14:33;2.90;;;2.80;;
8397;SDS011;4236;54.504;9.588;2022-09-01T13:17:00;3.00;;;2.80;;
8397;SDS011;4236;54.504;9.588;2022-09-01T13:19:28;2.73;;;2.63;;
8397;SDS011;4236;54.504;9.588;2022-09-01T13:21:56;3.00;;;2.90;;
8397;SDS011;4236;54.504;9.588;2022-09-01T13:24:25;3.07;;;2.87;;
8397;SDS011;4236;54.504;9.588;2022-09-01T13:26:56;2.80;;;2.70;;
8397;SDS011;4236;54.504;9.588;2022-09-01T13:29:44;2.70;;;2.60;;
8397;SDS011;4236;54.504;9.588;2022-09-01T13:32:12;2.93;;;2.83;;
8397;SDS011;4236;54.504;9.588;2022-09-01T13:34:44;4.93;;;2.67;;
8397;SDS011;4236;54.504;9.588;2022-09-01T13:37:12;3.20;;;3.10;;
8397;SDS011;4236;54.504;9.588;2022-09-01T13:39:41;4.70;;;3.50;;
8397;SDS011;4236;54.504;9.588;2022-09-01T13:42:09;2.80;;;2.70;;
8397;SDS011;4236;54.504;9.588;2022-09-01T13:44:38;3.33;;;3.10;;
8397;SDS011;4236;54.504;9.588;2022-09-01T13:47:06;3.20;;;3.10;;
8397;SDS011;4236;54.504;9.588;2022-09-01T13:49:53;3.17;;;3.07;;
8397;SDS011;4236;54.504;9.588;2022-09-01T13:52:38;3.00;;;2.90;;
8397;SDS011;4236;54.504;9.588;2022-09-01T13:55:10;3.10;;;2.90;;
8397;SDS011;4236;54.504;9.588;2022-09-01T13:57:40;3.37;;;3.27;;
8397;SDS011;4236;54.504;9.588;2022-09-01T14:00:09;9.70;;;3.60;;
8397;SDS011;4236;54.504;9.588;2022-09-01T14:02:43;2.70;;;2.53;;
8397;SDS011;4236;54.504;9.588;2022-09-01T14:05:15;3.50;;;3.40;;
8397;SDS011;4236;54.504;9.588;2022-09-01T14:07:44;3.23;;;3.03;;
8397;SDS011;4236;54.504;9.588;2022-09-01T14:10:15;2.90;;;2.70;;
8397;SDS011;4236;54.504;9.588;2022-09-01T14:12:43;2.70;;;2.60;;
8397;SDS011;4236;54.504;9.588;2022-09-01T14:15:11;6.40;;;3.37;;
8397;SDS011;4236;54.504;9.588;2022-09-01T14:17:44;5.70;;;3.10;;
8397;SDS011;4236;54.504;9.588;2022-09-01T14:20:14;3.20;;;3.00;;
8397;SDS011;4236;54.504;9.588;2022-09-01T14:22:44;3.10;;;3.00;;
8397;SDS011;4236;54.504;9.588;2022-09-01T14:25:12;3.43;;;3.00;;
8397;SDS011;4236;54.504;9.588;2022-09-01T14:27:42;2.93;;;2.77;;
8397;SDS011;4236;54.504;9.588;2022-09-01T14:30:13;3.03;;;2.83;;
8397;SDS011;4236;54.504;9.588;2022-09-01T14:32:42;3.37;;;3.17;;
8397;SDS011;4236;54.504;9.588;2022-09-01T14:35:10;3.27;;;3.17;;
8397;SDS011;4236;54.504;9.588;2022-09-01T14:37:38;3.87;;;3.47;;
8397;SDS011;4236;54.504;9.588;2022-09-01T14:40:06;3.37;;;3.07;;
8397;SDS011;4236;54.504;9.588;2022-09-01T14:42:43;3.10;;;2.87;;
8397;SDS011;4236;54.504;9.588;2022-09-01T14:45:15;3.13;;;3.03;;
8397;SDS011;4236;54.504;9.588;2022-09-01T14:47:44;3.27;;;3.10;;
8397;SDS011;4236;54.504;9.588;2022-09-01T14:50:12;3.00;;;2.90;;
8397;SDS011;4236;54.504;9.588;2022-09-01T14:52:48;3.50;;;3.20;;
8397;SDS011;4236;54.504;9.588;2022-09-01T14:55:17;6.30;;;3.50;;
8397;SDS011;4236;54.504;9.588;2022-09-01T14:57:46;3.30;;;3.20;;
8397;SDS011;4236;54.504;9.588;2022-09-01T15:00:14;3.23;;;3.13;;
8397;SDS011;4236;54.504;9.588;2022-09-01T15:02:42;3.77;;;3.27;;
8397;SDS011;4236;54.504;9.588;2022-09-01T15:05:11;2.80;;;2.70;;
8397;SDS011;4236;54.504;9.588;2022-09-01T15:07:39;3.67;;;3.47;;
8397;SDS011;4236;54.504;9.588;2022-09-01T15:10:07;3.30;;;3.20;;
8397;SDS011;4236;54.504;9.588;2022-09-01T15:12:49;5.87;;;3.30;;
8397;SDS011;4236;54.504;9.588;2022-09-01T15:15:17;3.20;;;3.00;;
8397;SDS011;4236;54.504;9.588;2022-09-01T15:17:45;3.00;;;2.80;;
8397;SDS011;4236;54.504;9.588;2022-09-01T15:20:13;3.27;;;3.17;;
8397;SDS011;4236;54.504;9.588;2022-09-01T15:22:59;2.93;;;2.60;;
8397;SDS011;4236;54.504;9.588;2022-09-01T15:25:27;2.90;;;2.63;;
8397;SDS011;4236;54.504;9.588;2022-09-01T15:27:56;3.00;;;2.80;;
8397;SDS011;4236;54.504;9.588;2022-09-01T15:30:24;3.60;;;3.30;;
8397;SDS011;4236;54.504;9.588;2022-09-01T15:32:53;3.10;;;3.00;;
8397;SDS011;4236;54.504;9.588;2022-09-01T15:35:21;5.17;;;3.10;;
8397;SDS011;4236;54.504;9.588;2022-09-01T15:37:49;3.03;;;2.87;;
8397;SDS011;4236;54.504;9.588;2022-09-01T15:40:18;3.13;;;3.03;;
8397;SDS011;4236;54.504;9.588;2022-09-01T15:42:46;3.20;;;3.00;;
8397;SDS011;4236;54.504;9.588;2022-09-01T15:45:17;3.40;;;3.30;;
8397;SDS011;4236;54.504;9.588;2022-09-01T15:47:46;2.83;;;2.73;;
8397;SDS011;4236;54.504;9.588;2022-09-01T15:50:16;3.20;;;3.00;;
8397;SDS011;4236;54.504;9.588;2022-09-01T15:52:48;2.73;;;2.63;;
8397;SDS011;4236;54.504;9.588;2022-09-01T15:55:18;2.93;;;2.83;;
8397;SDS011;4236;54.504;9.588;2022-09-01T15:57:47;3.17;;;2.97;;
8397;SDS011;4236;54.504;9.588;2022-09-01T16:00:16;5.63;;;2.70;;
8397;SDS011;4236;54.504;9.588;2022-09-01T16:02:44;2.93;;;2.80;;
8397;SDS011;4236;54.504;9.588;2022-09-01T16:05:12;1.90;;;1.80;;
8397;SDS011;4236;54.504;9.588;2022-09-01T16:07:40;2.43;;;2.13;;
8397;SDS011;4236;54.504;9.588;2022-09-01T16:10:09;2.80;;;2.70;;
8397;SDS011;4236;54.504;9.588;2022-09-01T16:12:38;2.90;;;2.80;;
8397;SDS011;4236;54.504;9.588;2022-09-01T16:15:09;2.23;;;2.13;;
8397;SDS011;4236;54.504;9.588;2022-09-01T16:17:44;2.60;;;2.50;;
8397;SDS011;4236;54.504;9.588;2022-09-01T16:20:26;2.40;;;2.30;;